Nearby METAR Reports

 

PAEN - Kenai, Alaska, USA
Distance from station: ESE 2mi, 4km
Updated: Mon, 21-Jan-2019 2:53pm AKST
Light snow, Overcast
Light snow, Overcast
 Wind from NNE
Wind: NNE 13 mph , 20 km/h
Temperature: 18°F , -8°C
Wind Chill: 5°F , -15°C
Dew Point: 12°F , -11°C
Humidity: 79%
Barometer: 29.70 inHg , 1005.8 hPa
Summary: Light Snow
Clouds: Overcast
Visibility: 5 miles , 8 km
Cloud details: Few Clouds 5500 ft
Partly cloudy 7500 ft
Overcast 10000 ft
2019/01/21 23:53 PAEN 212353Z 03011KT 5SM -SN FEW055 SCT075 OVC100 M08/M11 A2970 RMK AO2 SLP061 P0000 60000 T10831111 11083 21111 58005
PASX - Soldotna, Alaska, USA
Distance from station: SE 12mi, 19km
Updated: Mon, 21-Jan-2019 2:56pm AKST
Overcast
Overcast
 Wind from NE
Wind: NE 7 mph , 11 km/h
Temperature: 16°F , -9°C
Wind Chill: 6°F , -14°C
Dew Point: 10°F , -12°C
Humidity: 79%
Barometer: 29.72 inHg , 1006.4 hPa
Clouds: Overcast
Visibility: 9 miles , 14 km
Cloud details: Overcast 10000 ft
2019/01/21 23:56 PASX 212356Z AUTO 05006KT 9SM OVC100 M09/M12 A2972 RMK AO2 SNE51 SLP073 P0000 60000 T10941117 11094 21122 58006 FZRANO
 
PANC - Anchorage Intl, Alaska, USA
Distance from station: NE 59mi, 96km
Updated: Mon, 21-Jan-2019 3:02pm AKST
Light snow, Overcast
Light snow, Overcast
 Wind from NNE
Wind: NNE 8 mph , 13 km/h
Temperature: 16°F , -9°C
Wind Chill: 5°F , -15°C
Dew Point: 10°F , -12°C
Humidity: 79%
Barometer: 29.70 inHg , 1005.8 hPa
Summary: Light Snow
Clouds: Overcast
Visibility: 10 miles , 16 km
Cloud details: Overcast 4300 ft
2019/01/22 00:02 PANC 220002Z 02007KT 10SM -SN OVC043 M09/M12 A2970 RMK AO2 P0000 T10891122 $
PALH - Anchorage/Lake H, Alaska, USA
Distance from station: NE 61mi, 99km
Updated: Mon, 21-Jan-2019 2:53pm AKST
Light snow, Overcast
Light snow, Overcast
 Wind from NNE
Wind: NNE 9 mph , 15 km/h
Temperature: 14°F , -10°C
Wind Chill: 2°F , -17°C
Dew Point: 9°F , -13°C
Humidity: 79%
Barometer: 29.72 inHg , 1006.4 hPa
Summary: Light Snow
Clouds: Overcast
Visibility: 2 miles , 3 km
Cloud details: Mostly cloudy 4400 ft
Overcast 5500 ft
2019/01/21 23:53 PALH 212353Z 02008KT 2SM -SN BKN044 OVC055 M10/M13 A2972 RMK AO2 SFC VIS 3 SLP065 P0000 60000 T11001133 11100 21128 56004 $
 
PAHO - Homer, Alaska, USA
Distance from station: S 66mi, 106km
Updated: Mon, 21-Jan-2019 2:53pm AKST
Overcast
Overcast
 Wind from NNE
Wind: NNE 3 mph , 6 km/h
Temperature: 27°F , -3°C
Dew Point: 21°F , -6°C
Humidity: 80%
Barometer: 29.61 inHg , 1002.7 hPa
Clouds: Overcast
Visibility: 10 miles , 16 km
Cloud details: Few Clouds 800 ft
Overcast 11000 ft
2019/01/21 23:53 PAHO 212353Z 03003KT 10SM FEW008 OVC110 M03/M06 A2961 RMK AO2 SLP027 60000 T10331056 11028 21056 58009
PAMR - Anchorage/Merril, Alaska, USA
Distance from station: NE 66mi, 106km
Updated: Mon, 21-Jan-2019 2:53pm AKST
Light snow, Overcast
Light snow, Overcast
 Wind from NNE
Wind: NNE 5 mph , 7 km/h
Temperature: 14°F , -10°C
Wind Chill: 6°F , -14°C
Dew Point: 9°F , -13°C
Humidity: 79%
Barometer: 29.70 inHg , 1005.8 hPa
Summary: Light Snow
Clouds: Overcast
Visibility: 3 miles , 5 km
Cloud details: Overcast 5500 ft
2019/01/21 23:53 PAMR 212353Z 02004KT 3SM -SN OVC055 M10/M13 A2970 RMK AO2 SLP063 P0000 60000 T11001128 11100 21128 58006 $
 
PAED - Elmendorf Afb, Alaska, USA
Distance from station: NE 69mi, 110km
Updated: Mon, 21-Jan-2019 2:55pm AKST
Light snow, Mist, Overcast
Light snow, Mist, Overcast
 Wind from NE
Wind: NE 6 mph , 9 km/h
Temperature: 12°F , -11°C
Wind Chill: 2°F , -17°C
Dew Point: 12°F , -11°C
Humidity: 100%
Barometer: 29.69 inHg , 1005.4 hPa
Summary: Light snow, Mist
Clouds: Overcast
Visibility: 6 miles , 10 km
Cloud details: Overcast 4800 ft
2019/01/21 23:55 PAED 212355Z 05005KT 6SM -SN BR OVC048 M11/M11 A2969 RMK AO2A SLP054 P0000 60000 T11061108 11106 21132 57005
PAWD - Seward, Alaska, USA
Distance from station: ESE 71mi, 115km
Updated: Mon, 21-Jan-2019 2:53pm AKST
Light snow, Mist, Overcast
Light snow, Mist, Overcast
 
Temperature: 28°F , -2°C
Dew Point: 27°F , -3°C
Humidity: 93%
Barometer: 29.64 inHg , 1003.7 hPa
Summary: Light snow, Mist
Clouds: Overcast
Visibility: 5 miles , 8 km
Cloud details: Overcast 4900 ft
2019/01/21 23:53 PAWD 212353Z AUTO 5SM -SN BR OVC049 M02/M03 A2964 RMK SLP038 P0000 60000 T10171028 11017 21056 58003 TSNO $ VIA AUTODIAL
 
PASC - Deadhorse, Alaska, USA
Distance from station: ENE 670mi, 1078km
Updated: Mon, 21-Jan-2019 2:53pm AKST
Clear
Clear
 Wind from WSW
Wind: WSW 9 mph , 15 km/h
Temperature: -29°F , -34°C
Wind Chill: -51°F , -46°C
Dew Point: -35°F , -37°C
Humidity: 74%
Barometer: 30.24 inHg , 1024 hPa
Clouds: Clear
Visibility: 10 miles , 16 km
2019/01/21 23:53 PASC 212353Z 24008KT 10SM CLR M34/M37 A3024 RMK AO2 SLP243 T13391367 11300 21339 53007
PAAD - Point Thomson, Alaska, USA
Distance from station: ENE 680mi, 1094km
Updated: Mon, 21-Jan-2019 3:15pm AKST
Clear
Clear
 Wind from WSW
Wind: WSW 12 mph , 19 km/h
Temperature: -26°F , -32°C
Wind Chill: -50°F , -46°C
Dew Point: -29°F , -34°C
Humidity: 82%
Barometer: 30.23 inHg , 1023.7 hPa
Clouds: Clear
Visibility: 10 miles , 16 km
2019/01/22 00:15 PAAD 220015Z AUTO 24010KT 10SM CLR M32/M34 A3023 RMK AO2 T13161343


kenaipeople.com website

Dans Automotive

Lower Peninsula Power Sports

Freddies RoadHouse

Alaska Weather Net